Time;durP1;ratioP1;P1;durP2;ratioP2;P2;SDS_P1;SDS_P2;PMS_P1;PMS_P2;Temp;Humidity;BMP_temperature;BMP_pressure;BME280_temperature;BME280_humidity;BME280_pressure;Samples;Min_cycle;Max_cycle;Signal;HPM_P1;HPM_P2
2021/12/21 00:00:42;;;;;;;8.43;4.35;;;;;;;;;;5005533;28;20037;-59
2021/12/21 00:03:10;;;;;;;8.27;4.55;;;;;;;;;;4985123;28;20638;-60
2021/12/21 00:05:37;;;;;;;8.88;4.55;;;;;;;;;;4987565;28;20037;-60
2021/12/21 00:08:08;;;;;;;8.50;4.15;;;;;;;;;;4986698;28;20044;-60
2021/12/21 00:10:36;;;;;;;8.65;4.85;;;;;;;;;;4964561;28;20205;-60
2021/12/21 00:13:22;;;;;;;5.75;4.15;;;;;;;;;;4983667;28;20026;-60
2021/12/21 00:23:31;;;;;;;8.95;4.75;;;;;;;;;;4986845;28;20045;-60
2021/12/21 00:26:03;;;;;;;9.93;4.40;;;;;;;;;;4988119;28;20125;-59
2021/12/21 00:28:35;;;;;;;9.32;4.78;;;;;;;;;;4986661;28;20069;-60
2021/12/21 00:31:01;;;;;;;13.60;4.95;;;;;;;;;;4986230;28;20038;-59
2021/12/21 00:33:26;;;;;;;15.50;5.10;;;;;;;;;;4984949;28;20053;-59
2021/12/21 00:35:57;;;;;;;11.63;4.43;;;;;;;;;;4988083;28;22073;-59
2021/12/21 00:38:25;;;;;;;8.85;4.15;;;;;;;;;;4980387;28;20026;-59
2021/12/21 00:40:54;;;;;;;6.18;4.03;;;;;;;;;;4989330;28;20030;-60
2021/12/21 00:43:22;;;;;;;4.43;3.22;;;;;;;;;;4984678;28;20038;-58
2021/12/21 00:45:50;;;;;;;10.25;4.80;;;;;;;;;;4984946;28;20042;-60
2021/12/21 00:48:26;;;;;;;7.50;3.63;;;;;;;;;;4987600;28;20022;-58
2021/12/21 00:50:54;;;;;;;6.45;3.63;;;;;;;;;;4984569;28;20564;-58
2021/12/21 00:53:22;;;;;;;6.60;4.03;;;;;;;;;;4986880;28;20030;-59
2021/12/21 00:55:50;;;;;;;6.80;3.97;;;;;;;;;;4987648;28;20820;-60
2021/12/21 00:58:18;;;;;;;7.95;4.22;;;;;;;;;;4984887;28;20095;-59
2021/12/21 01:00:46;;;;;;;6.18;3.90;;;;;;;;;;4985608;28;20402;-59
2021/12/21 01:03:16;;;;;;;7.28;3.55;;;;;;;;;;4987179;28;20128;-59
2021/12/21 01:08:16;;;;;;;6.85;3.75;;;;;;;;;;4987435;28;20065;-60
2021/12/21 01:10:53;;;;;;;6.40;3.75;;;;;;;;;;4969859;28;20777;-59
2021/12/21 01:18:32;;;;;;;4.30;3.28;;;;;;;;;;4987798;28;20030;-59
2021/12/21 01:21:07;;;;;;;6.65;4.28;;;;;;;;;;4986909;28;20042;-60
2021/12/21 01:23:54;;;;;;;7.18;4.72;;;;;;;;;;4954039;28;20208;-59
2021/12/21 01:29:06;;;;;;;10.30;4.40;;;;;;;;;;5000752;28;20475;-60
2021/12/21 01:31:52;;;;;;;5.60;4.00;;;;;;;;;;4983053;28;22055;-58
2021/12/21 01:37:20;;;;;;;5.63;3.90;;;;;;;;;;4976920;28;20030;-60
2021/12/21 01:40:13;;;;;;;9.48;4.15;;;;;;;;;;4985371;28;20537;-59
2021/12/21 01:43:54;;;;;;;11.10;4.43;;;;;;;;;;4978717;28;20037;-59
2021/12/21 01:51:15;;;;;;;7.30;3.67;;;;;;;;;;4985751;28;20033;-59
2021/12/21 01:53:45;;;;;;;7.43;4.00;;;;;;;;;;4985279;28;20030;-59
2021/12/21 01:56:11;;;;;;;6.15;4.15;;;;;;;;;;4984810;28;20034;-59
2021/12/21 01:58:39;;;;;;;8.18;3.78;;;;;;;;;;4984489;28;20033;-59
2021/12/21 02:01:09;;;;;;;9.70;4.13;;;;;;;;;;4984619;28;20160;-59
2021/12/21 02:03:37;;;;;;;9.25;4.32;;;;;;;;;;5001807;28;20045;-60
2021/12/21 02:06:11;;;;;;;6.40;3.42;;;;;;;;;;5000210;28;20517;-60
2021/12/21 02:08:41;;;;;;;8.52;3.95;;;;;;;;;;4986797;28;20511;-60
2021/12/21 02:11:06;;;;;;;5.10;3.53;;;;;;;;;;4985183;28;20037;-59
2021/12/21 02:13:35;;;;;;;7.30;3.47;;;;;;;;;;4962426;28;20069;-59
2021/12/21 02:16:10;;;;;;;7.88;4.65;;;;;;;;;;4987584;28;20109;-60
2021/12/21 02:18:56;;;;;;;5.10;3.70;;;;;;;;;;4983454;28;21610;-59
2021/12/21 02:23:56;;;;;;;8.20;3.63;;;;;;;;;;4985259;28;20061;-59
2021/12/21 02:31:28;;;;;;;14.93;4.03;;;;;;;;;;4982517;28;20042;-59
2021/12/21 02:33:57;;;;;;;18.10;4.43;;;;;;;;;;4967096;28;20614;-60
2021/12/21 02:36:25;;;;;;;3.60;2.83;;;;;;;;;;4978434;28;20154;-59
2021/12/21 02:38:50;;;;;;;7.47;3.75;;;;;;;;;;4986059;28;20766;-59
2021/12/21 02:41:21;;;;;;;6.75;3.28;;;;;;;;;;4986370;28;20563;-59
2021/12/21 02:43:47;;;;;;;7.82;3.67;;;;;;;;;;4950815;28;20038;-60
2021/12/21 02:46:17;;;;;;;6.97;3.75;;;;;;;;;;4985352;28;20041;-59
2021/12/21 02:48:45;;;;;;;8.30;3.83;;;;;;;;;;4982843;28;20889;-60
2021/12/21 02:51:13;;;;;;;9.40;3.38;;;;;;;;;;4983066;28;20080;-59
2021/12/21 02:53:39;;;;;;;5.82;3.53;;;;;;;;;;4986015;28;20081;-59
2021/12/21 02:56:09;;;;;;;9.48;4.32;;;;;;;;;;4988930;28;20573;-60
2021/12/21 02:58:37;;;;;;;6.05;3.60;;;;;;;;;;4984575;28;20623;-60
2021/12/21 03:01:07;;;;;;;7.60;3.90;;;;;;;;;;4981438;28;20294;-62
2021/12/21 03:03:35;;;;;;;8.45;3.70;;;;;;;;;;4976731;28;20030;-60
2021/12/21 03:06:03;;;;;;;8.50;4.15;;;;;;;;;;4968575;28;21077;-60
2021/12/21 03:11:11;;;;;;;8.18;3.85;;;;;;;;;;4984964;28;20869;-59
2021/12/21 03:16:26;;;;;;;10.55;4.53;;;;;;;;;;4983422;28;20030;-58
2021/12/21 03:18:57;;;;;;;11.27;5.72;;;;;;;;;;4982773;28;20125;-58
2021/12/21 03:21:22;;;;;;;5.32;4.03;;;;;;;;;;4981772;28;20030;-59
2021/12/21 03:23:48;;;;;;;14.52;4.68;;;;;;;;;;4983829;28;20049;-59
2021/12/21 03:26:16;;;;;;;7.20;3.35;;;;;;;;;;4979975;28;20065;-59
2021/12/21 03:28:44;;;;;;;11.48;4.82;;;;;;;;;;4985419;28;20168;-59
2021/12/21 03:31:10;;;;;;;6.28;3.70;;;;;;;;;;4989608;28;20042;-60
2021/12/21 03:33:38;;;;;;;12.88;4.97;;;;;;;;;;4972525;28;20084;-58
2021/12/21 03:36:08;;;;;;;11.85;4.70;;;;;;;;;;4986855;28;20092;-58
2021/12/21 03:38:38;;;;;;;12.50;4.72;;;;;;;;;;4980261;28;20038;-58
2021/12/21 03:41:09;;;;;;;13.15;5.68;;;;;;;;;;4989766;28;20030;-60
2021/12/21 03:43:40;;;;;;;9.90;4.77;;;;;;;;;;4987917;28;20026;-59
2021/12/21 03:46:11;;;;;;;9.02;4.65;;;;;;;;;;4968285;28;20311;-59
2021/12/21 03:48:38;;;;;;;7.75;4.72;;;;;;;;;;4969987;28;20045;-59
2021/12/21 03:51:06;;;;;;;13.32;4.63;;;;;;;;;;4988740;28;20042;-59
2021/12/21 03:53:31;;;;;;;15.75;4.43;;;;;;;;;;4984612;28;20397;-59
2021/12/21 03:58:43;;;;;;;6.80;3.58;;;;;;;;;;4987049;28;20034;-59
2021/12/21 04:01:11;;;;;;;13.77;3.97;;;;;;;;;;4987512;28;20124;-59
2021/12/21 04:03:39;;;;;;;13.10;4.40;;;;;;;;;;4985452;28;20041;-59
2021/12/21 04:06:07;;;;;;;8.93;4.60;;;;;;;;;;4986740;28;20029;-60
2021/12/21 04:08:35;;;;;;;13.80;5.95;;;;;;;;;;4979094;28;20251;-58
2021/12/21 04:11:01;;;;;;;8.80;4.97;;;;;;;;;;4986443;28;20034;-59
2021/12/21 04:13:32;;;;;;;11.18;4.30;;;;;;;;;;5002595;28;20037;-59
2021/12/21 04:16:01;;;;;;;9.00;4.20;;;;;;;;;;4986396;28;20041;-59
2021/12/21 04:18:34;;;;;;;10.27;5.13;;;;;;;;;;4985745;28;20665;-59
2021/12/21 04:20:59;;;;;;;9.93;4.00;;;;;;;;;;4987521;28;20665;-59
2021/12/21 04:23:27;;;;;;;10.52;4.22;;;;;;;;;;4989854;28;20096;-60
2021/12/21 04:25:55;;;;;;;9.23;4.32;;;;;;;;;;4964721;28;20046;-60
2021/12/21 04:28:25;;;;;;;7.90;4.05;;;;;;;;;;4987153;28;20081;-60
2021/12/21 04:30:50;;;;;;;10.15;4.15;;;;;;;;;;4986432;28;20034;-60
2021/12/21 04:33:23;;;;;;;6.53;3.67;;;;;;;;;;4987953;28;20421;-60
2021/12/21 04:35:51;;;;;;;8.55;4.72;;;;;;;;;;4987219;28;20071;-59
2021/12/21 04:38:23;;;;;;;13.13;3.75;;;;;;;;;;4988117;28;20033;-59
2021/12/21 04:40:54;;;;;;;9.40;4.28;;;;;;;;;;5000596;28;20040;-59
2021/12/21 04:43:21;;;;;;;8.70;5.18;;;;;;;;;;4986594;28;20053;-59
2021/12/21 04:45:47;;;;;;;6.45;3.90;;;;;;;;;;4968423;28;20160;-59
2021/12/21 04:48:17;;;;;;;8.40;4.38;;;;;;;;;;4984263;28;20069;-59
2021/12/21 04:50:45;;;;;;;7.72;4.18;;;;;;;;;;4985704;28;20108;-59
2021/12/21 04:53:10;;;;;;;14.70;4.35;;;;;;;;;;4982745;28;20096;-59
2021/12/21 04:55:38;;;;;;;14.70;3.72;;;;;;;;;;4979447;28;20033;-59
2021/12/21 04:58:04;;;;;;;9.63;4.57;;;;;;;;;;4988235;28;20041;-59
2021/12/21 05:00:32;;;;;;;9.88;5.30;;;;;;;;;;4987341;28;20022;-60
2021/12/21 05:02:58;;;;;;;11.18;5.65;;;;;;;;;;4986905;28;20034;-60
2021/12/21 05:05:28;;;;;;;8.10;4.57;;;;;;;;;;4987126;28;20022;-59
2021/12/21 05:08:11;;;;;;;8.48;5.20;;;;;;;;;;5003605;28;20061;-60
2021/12/21 05:10:50;;;;;;;6.40;3.45;;;;;;;;;;4970798;28;20030;-59
2021/12/21 05:13:17;;;;;;;10.73;3.60;;;;;;;;;;4986434;28;20081;-59
2021/12/21 05:15:45;;;;;;;8.85;4.32;;;;;;;;;;4988409;28;20077;-61
2021/12/21 05:18:13;;;;;;;29.15;5.35;;;;;;;;;;4987629;28;20033;-59
2021/12/21 05:20:43;;;;;;;7.18;3.22;;;;;;;;;;4987734;28;20766;-61
2021/12/21 05:23:12;;;;;;;9.30;4.47;;;;;;;;;;5003356;28;20122;-60
2021/12/21 05:25:41;;;;;;;8.50;4.35;;;;;;;;;;4982431;28;21190;-58
2021/12/21 05:28:08;;;;;;;10.68;4.35;;;;;;;;;;4987698;28;21041;-60
2021/12/21 05:30:36;;;;;;;8.05;4.30;;;;;;;;;;4978882;28;20144;-60
2021/12/21 05:33:03;;;;;;;13.75;5.18;;;;;;;;;;5003418;28;20124;-59
2021/12/21 05:35:32;;;;;;;10.57;5.03;;;;;;;;;;4988385;28;20018;-59
2021/12/21 05:38:03;;;;;;;6.95;4.43;;;;;;;;;;4981173;28;20018;-59
2021/12/21 05:40:40;;;;;;;4.32;3.53;;;;;;;;;;4988118;28;20018;-59
2021/12/21 05:43:06;;;;;;;11.20;4.32;;;;;;;;;;4983982;28;22077;-59
2021/12/21 05:45:35;;;;;;;4.60;3.17;;;;;;;;;;4984859;28;20117;-59
2021/12/21 05:48:01;;;;;;;7.15;4.35;;;;;;;;;;4987398;28;20130;-60
2021/12/21 05:50:29;;;;;;;7.00;4.00;;;;;;;;;;4984275;28;20033;-59
2021/12/21 05:52:55;;;;;;;9.05;3.92;;;;;;;;;;4984606;28;20042;-59
2021/12/21 05:55:21;;;;;;;9.65;3.90;;;;;;;;;;4987818;28;20041;-62
2021/12/21 05:57:51;;;;;;;11.02;3.92;;;;;;;;;;4985981;28;20030;-60
2021/12/21 06:00:21;;;;;;;6.57;3.72;;;;;;;;;;4989478;28;20038;-60
2021/12/21 06:02:49;;;;;;;8.90;3.63;;;;;;;;;;4981985;28;20163;-59
2021/12/21 06:05:19;;;;;;;5.65;3.22;;;;;;;;;;4989257;28;20297;-59
2021/12/21 06:07:50;;;;;;;5.20;3.20;;;;;;;;;;4988318;28;20030;-59
2021/12/21 06:10:28;;;;;;;4.85;3.05;;;;;;;;;;4988339;28;20205;-59
2021/12/21 06:15:41;;;;;;;7.55;3.10;;;;;;;;;;4983085;28;20050;-58
2021/12/21 06:26:13;;;;;;;6.85;3.53;;;;;;;;;;4983803;28;20038;-60
2021/12/21 06:28:41;;;;;;;6.28;3.58;;;;;;;;;;4982203;28;20034;-60
2021/12/21 06:31:12;;;;;;;4.35;3.45;;;;;;;;;;4985008;28;20076;-60
2021/12/21 06:33:38;;;;;;;8.52;4.60;;;;;;;;;;4983605;28;20037;-60
2021/12/21 06:36:07;;;;;;;13.18;4.95;;;;;;;;;;4977891;28;20030;-60
2021/12/21 06:38:32;;;;;;;13.40;5.20;;;;;;;;;;4986687;28;20084;-60
2021/12/21 06:40:58;;;;;;;18.00;7.40;;;;;;;;;;4984290;28;20056;-60
2021/12/21 06:43:26;;;;;;;7.75;4.03;;;;;;;;;;4984901;28;20066;-59
2021/12/21 06:46:01;;;;;;;9.10;4.13;;;;;;;;;;4982644;28;20091;-58
2021/12/21 06:53:41;;;;;;;14.98;4.18;;;;;;;;;;4984976;28;20107;-61
2021/12/21 06:56:10;;;;;;;9.70;3.90;;;;;;;;;;4983913;28;20066;-59
2021/12/21 06:58:36;;;;;;;6.93;3.25;;;;;;;;;;4985929;28;20084;-59
2021/12/21 07:01:02;;;;;;;10.10;3.83;;;;;;;;;;4995613;28;20128;-60
2021/12/21 07:03:30;;;;;;;5.20;3.45;;;;;;;;;;4988877;28;20057;-60
2021/12/21 07:05:59;;;;;;;8.45;3.55;;;;;;;;;;4982163;28;20099;-60
2021/12/21 07:08:33;;;;;;;7.82;4.75;;;;;;;;;;4981864;28;20021;-60
2021/12/21 07:11:18;;;;;;;10.52;3.75;;;;;;;;;;4984263;28;20049;-60
2021/12/21 07:19:17;;;;;;;5.05;2.88;;;;;;;;;;4978576;28;20034;-59
2021/12/21 07:21:45;;;;;;;6.90;3.47;;;;;;;;;;4984948;28;20248;-60
2021/12/21 07:24:13;;;;;;;7.35;4.03;;;;;;;;;;4981042;28;20092;-60
2021/12/21 07:26:41;;;;;;;6.82;3.00;;;;;;;;;;4966540;28;20058;-60
2021/12/21 07:29:09;;;;;;;6.82;4.30;;;;;;;;;;4968338;28;20037;-60
2021/12/21 07:31:36;;;;;;;10.45;3.85;;;;;;;;;;4966366;28;20042;-60
2021/12/21 07:34:02;;;;;;;8.45;3.40;;;;;;;;;;4986985;28;20022;-60
2021/12/21 07:36:31;;;;;;;10.02;3.47;;;;;;;;;;4983136;28;20033;-60
2021/12/21 07:38:57;;;;;;;6.35;3.45;;;;;;;;;;4984325;28;20030;-59
2021/12/21 07:41:25;;;;;;;7.85;3.95;;;;;;;;;;4961331;28;20691;-59
2021/12/21 07:43:55;;;;;;;9.18;4.53;;;;;;;;;;4975715;28;20041;-58
2021/12/21 07:46:23;;;;;;;9.43;4.03;;;;;;;;;;4983663;28;20638;-57
2021/12/21 07:48:54;;;;;;;9.63;3.70;;;;;;;;;;4981251;28;20042;-59
2021/12/21 07:51:19;;;;;;;5.43;3.03;;;;;;;;;;4984274;28;20037;-59
2021/12/21 07:53:47;;;;;;;17.38;3.50;;;;;;;;;;4981683;28;20092;-59
2021/12/21 07:56:14;;;;;;;10.38;4.03;;;;;;;;;;4961144;28;21669;-58
2021/12/21 07:58:42;;;;;;;5.22;4.03;;;;;;;;;;4983343;28;20030;-59
2021/12/21 08:01:11;;;;;;;13.98;4.20;;;;;;;;;;4984985;28;20041;-58
2021/12/21 08:03:41;;;;;;;5.43;2.80;;;;;;;;;;4982195;28;20026;-59
2021/12/21 08:06:12;;;;;;;11.63;4.53;;;;;;;;;;4961866;28;20045;-59
2021/12/21 08:08:44;;;;;;;8.40;3.83;;;;;;;;;;4984791;28;20096;-59
2021/12/21 08:13:56;;;;;;;;;;;;;;;;;;4986395;28;20092;-59
2021/12/21 08:16:27;;;;;;;9.90;3.88;;;;;;;;;;4991036;28;19913;-59
2021/12/21 08:18:52;;;;;;;8.40;4.25;;;;;;;;;;4987277;28;20033;-59
2021/12/21 08:21:22;;;;;;;6.95;4.38;;;;;;;;;;4968608;28;20076;-59
2021/12/21 08:23:50;;;;;;;9.00;4.00;;;;;;;;;;4989600;28;20425;-58
2021/12/21 08:26:21;;;;;;;9.52;4.10;;;;;;;;;;4989393;28;20025;-59
2021/12/21 08:28:49;;;;;;;7.85;4.60;;;;;;;;;;4987816;28;20034;-59
2021/12/21 08:31:19;;;;;;;8.40;4.63;;;;;;;;;;4988878;28;20050;-62
2021/12/21 08:33:44;;;;;;;8.02;4.05;;;;;;;;;;4988604;28;20531;-58
2021/12/21 08:36:12;;;;;;;9.65;4.68;;;;;;;;;;4972730;28;20030;-59
2021/12/21 08:38:43;;;;;;;7.45;3.80;;;;;;;;;;4970973;28;20030;-57
2021/12/21 08:41:08;;;;;;;15.77;4.57;;;;;;;;;;4988464;28;20050;-57
2021/12/21 08:43:36;;;;;;;9.10;4.65;;;;;;;;;;4986229;28;20131;-59
2021/12/21 08:46:09;;;;;;;6.68;4.03;;;;;;;;;;4987869;28;20917;-59
2021/12/21 08:48:35;;;;;;;7.30;4.28;;;;;;;;;;5004448;28;20469;-58
2021/12/21 08:51:04;;;;;;;10.05;3.72;;;;;;;;;;4988062;28;20092;-58
2021/12/21 08:53:29;;;;;;;5.30;3.90;;;;;;;;;;4987891;28;20018;-58
2021/12/21 08:56:00;;;;;;;5.95;3.20;;;;;;;;;;4988655;28;20481;-57
2021/12/21 08:58:28;;;;;;;7.53;4.20;;;;;;;;;;5002954;28;20034;-57
2021/12/21 09:00:54;;;;;;;13.73;4.60;;;;;;;;;;4987232;28;20045;-59
2021/12/21 09:03:24;;;;;;;5.15;4.32;;;;;;;;;;4988408;28;20033;-58
2021/12/21 09:05:50;;;;;;;10.90;4.80;;;;;;;;;;5323465;22;20091;-59
2021/12/21 09:08:17;;;;;;;7.07;4.32;;;;;;;;;;4983589;28;20034;-58
2021/12/21 09:10:47;;;;;;;5.05;3.75;;;;;;;;;;4984832;28;20042;-58
2021/12/21 09:13:15;;;;;;;8.23;4.45;;;;;;;;;;4983893;28;20026;-58
2021/12/21 09:15:47;;;;;;;12.45;4.05;;;;;;;;;;4970522;28;20485;-58
2021/12/21 09:18:15;;;;;;;11.73;5.28;;;;;;;;;;4964498;28;20033;-57
2021/12/21 09:20:40;;;;;;;8.82;4.50;;;;;;;;;;4965813;28;20768;-57
2021/12/21 09:23:06;;;;;;;6.35;4.20;;;;;;;;;;4984090;28;20096;-57
2021/12/21 09:25:32;;;;;;;13.55;5.38;;;;;;;;;;4967343;28;20034;-57
2021/12/21 09:28:00;;;;;;;13.68;4.75;;;;;;;;;;4969302;28;20033;-57
2021/12/21 09:30:27;;;;;;;9.20;4.88;;;;;;;;;;4967616;28;20034;-58
2021/12/21 09:32:55;;;;;;;11.57;4.60;;;;;;;;;;4965703;28;20290;-57
2021/12/21 09:35:21;;;;;;;11.10;5.38;;;;;;;;;;4970253;28;20034;-57
2021/12/21 09:37:46;;;;;;;13.90;5.13;;;;;;;;;;4966661;28;20577;-58
2021/12/21 09:40:17;;;;;;;9.90;4.55;;;;;;;;;;4984099;28;20041;-58
2021/12/21 09:42:47;;;;;;;8.35;4.18;;;;;;;;;;4947828;28;20046;-58
2021/12/21 09:45:13;;;;;;;9.32;4.65;;;;;;;;;;4984910;28;20038;-58
2021/12/21 09:47:42;;;;;;;6.95;3.90;;;;;;;;;;4983798;28;20045;-57
2021/12/21 09:50:08;;;;;;;11.88;4.68;;;;;;;;;;4965373;28;20042;-57
2021/12/21 09:52:37;;;;;;;9.73;4.50;;;;;;;;;;4964273;28;21873;-58
2021/12/21 09:55:04;;;;;;;13.30;5.10;;;;;;;;;;4948540;28;20042;-58
2021/12/21 09:57:32;;;;;;;5.28;3.80;;;;;;;;;;4972202;28;20042;-58
2021/12/21 09:59:57;;;;;;;6.97;3.95;;;;;;;;;;4964520;28;20928;-57
2021/12/21 10:02:26;;;;;;;8.05;4.53;;;;;;;;;;4983238;28;20046;-57
2021/12/21 10:05:04;;;;;;;11.27;4.47;;;;;;;;;;4967435;28;20414;-58
2021/12/21 10:07:36;;;;;;;15.63;4.95;;;;;;;;;;4960413;28;20065;-58
2021/12/21 10:10:21;;;;;;;7.80;5.22;;;;;;;;;;4965974;28;20042;-57
2021/12/21 10:15:50;;;;;;;6.75;4.05;;;;;;;;;;4962906;28;20052;-58
2021/12/21 10:18:32;;;;;;;16.65;6.18;;;;;;;;;;4971451;28;20049;-58
2021/12/21 10:21:02;;;;;;;9.00;4.78;;;;;;;;;;4976303;28;20035;-58
2021/12/21 10:23:30;;;;;;;7.75;4.50;;;;;;;;;;4939824;28;20482;-58
2021/12/21 10:25:59;;;;;;;12.40;4.35;;;;;;;;;;4965097;28;20042;-57
2021/12/21 10:28:35;;;;;;;11.80;4.97;;;;;;;;;;4977555;28;20045;-58
2021/12/21 10:31:05;;;;;;;18.08;5.57;;;;;;;;;;4964802;28;20054;-58
2021/12/21 10:33:34;;;;;;;13.65;4.55;;;;;;;;;;4964052;28;20508;-58
2021/12/21 10:36:01;;;;;;;11.63;4.72;;;;;;;;;;4963106;28;20022;-58
2021/12/21 10:38:31;;;;;;;6.95;3.83;;;;;;;;;;4961931;28;22175;-58
2021/12/21 10:41:00;;;;;;;4.53;4.13;;;;;;;;;;4964829;28;20030;-58
2021/12/21 10:43:29;;;;;;;9.55;5.10;;;;;;;;;;4963248;28;20424;-58
2021/12/21 10:46:01;;;;;;;9.55;4.55;;;;;;;;;;4959309;28;20030;-58
2021/12/21 10:48:30;;;;;;;8.02;4.72;;;;;;;;;;4975024;28;20042;-58
2021/12/21 10:51:00;;;;;;;12.00;4.10;;;;;;;;;;4960738;28;20041;-58
2021/12/21 10:53:31;;;;;;;8.80;4.15;;;;;;;;;;4964224;28;20038;-58
2021/12/21 10:56:00;;;;;;;7.80;4.03;;;;;;;;;;4962705;28;20033;-58
2021/12/21 10:58:26;;;;;;;15.27;4.95;;;;;;;;;;4961247;28;20045;-58
2021/12/21 11:00:55;;;;;;;10.85;4.82;;;;;;;;;;4972228;28;20080;-58
2021/12/21 11:03:46;;;;;;;10.90;4.50;;;;;;;;;;4962262;28;20077;-58
2021/12/21 11:06:18;;;;;;;10.13;4.43;;;;;;;;;;4962766;28;20046;-58
2021/12/21 11:08:48;;;;;;;9.98;4.00;;;;;;;;;;4959499;28;20417;-58
2021/12/21 11:11:22;;;;;;;8.52;4.30;;;;;;;;;;4965968;28;20026;-58
2021/12/21 11:13:59;;;;;;;9.02;4.72;;;;;;;;;;4963612;28;20049;-58
2021/12/21 11:16:34;;;;;;;12.75;5.35;;;;;;;;;;4965711;28;20476;-58
2021/12/21 11:19:04;;;;;;;;;;;;;;;;;;4965073;28;20035;-58
2021/12/21 11:21:32;;;;;;;8.60;4.22;;;;;;;;;;4956645;28;20365;-57
2021/12/21 11:24:04;;;;;;;8.85;4.30;;;;;;;;;;4974159;28;20030;-58
2021/12/21 11:26:31;;;;;;;11.13;4.78;;;;;;;;;;4956018;28;20197;-58
2021/12/21 11:29:05;;;;;;;8.43;3.80;;;;;;;;;;4963156;28;20034;-58
2021/12/21 11:31:33;;;;;;;;;;;;;;;;;;4962974;28;20572;-58
2021/12/21 11:34:03;;;;;;;10.60;4.30;;;;;;;;;;4958244;28;19914;-58
2021/12/21 11:39:18;;;;;;;6.78;4.03;;;;;;;;;;4960013;28;20037;-58
2021/12/21 11:41:47;;;;;;;11.43;4.80;;;;;;;;;;4974242;28;20072;-58
2021/12/21 11:44:23;;;;;;;11.73;4.47;;;;;;;;;;4975798;28;20042;-58
2021/12/21 11:47:01;;;;;;;6.53;3.53;;;;;;;;;;4962822;28;20042;-58
2021/12/21 11:49:33;;;;;;;8.40;3.50;;;;;;;;;;4963692;28;20045;-58
2021/12/21 11:52:09;;;;;;;10.45;4.55;;;;;;;;;;4980388;28;20038;-58
2021/12/21 11:54:46;;;;;;;5.20;3.50;;;;;;;;;;4964621;28;20158;-58
2021/12/21 11:57:14;;;;;;;8.98;3.50;;;;;;;;;;4963167;28;20037;-58
2021/12/21 11:59:45;;;;;;;6.85;3.05;;;;;;;;;;4965621;28;20069;-58
2021/12/21 12:02:16;;;;;;;9.55;3.08;;;;;;;;;;4965943;28;20074;-58
2021/12/21 12:04:41;;;;;;;14.93;3.47;;;;;;;;;;4965148;28;20097;-58
2021/12/21 12:07:15;;;;;;;10.23;3.92;;;;;;;;;;4977689;28;22302;-58
2021/12/21 12:09:44;;;;;;;4.82;3.15;;;;;;;;;;4963570;28;20046;-58
2021/12/21 12:12:12;;;;;;;8.57;3.35;;;;;;;;;;4967847;28;20034;-58
2021/12/21 12:14:47;;;;;;;8.90;3.65;;;;;;;;;;4966956;28;20061;-58
2021/12/21 12:17:12;;;;;;;7.97;3.20;;;;;;;;;;4967237;28;21500;-58
2021/12/21 12:19:38;;;;;;;9.70;3.38;;;;;;;;;;4947955;28;20027;-58
2021/12/21 12:22:05;;;;;;;5.93;3.50;;;;;;;;;;4964989;28;20060;-57
2021/12/21 12:24:40;;;;;;;6.97;3.70;;;;;;;;;;4967488;28;20048;-57
2021/12/21 12:27:09;;;;;;;7.63;4.03;;;;;;;;;;4966261;28;20071;-59
2021/12/21 12:30:00;;;;;;;13.30;4.78;;;;;;;;;;4966649;28;20038;-58
2021/12/21 12:32:36;;;;;;;7.05;3.95;;;;;;;;;;4967214;28;20096;-58
2021/12/21 12:35:11;;;;;;;11.10;3.78;;;;;;;;;;4967880;28;20038;-58
2021/12/21 12:37:54;;;;;;;12.10;3.83;;;;;;;;;;4967867;28;20042;-57
2021/12/21 12:40:26;;;;;;;8.73;3.55;;;;;;;;;;4959738;28;20042;-57
2021/12/21 12:42:54;;;;;;;9.03;3.87;;;;;;;;;;4963346;28;20031;-59
2021/12/21 12:45:38;;;;;;;16.27;4.55;;;;;;;;;;4967150;28;20084;-59
2021/12/21 12:48:17;;;;;;;7.13;3.55;;;;;;;;;;4965615;28;20122;-57
2021/12/21 12:50:46;;;;;;;12.48;4.18;;;;;;;;;;4966036;28;20135;-58
2021/12/21 12:53:37;;;;;;;10.05;3.90;;;;;;;;;;4942515;28;20039;-58
2021/12/21 12:56:07;;;;;;;7.80;3.47;;;;;;;;;;4964887;28;20038;-58
2021/12/21 12:58:35;;;;;;;8.30;3.60;;;;;;;;;;4964130;28;20026;-58
2021/12/21 13:01:06;;;;;;;3.90;2.80;;;;;;;;;;4977938;28;20711;-58
2021/12/21 13:03:36;;;;;;;9.13;3.92;;;;;;;;;;4966212;28;20065;-58
2021/12/21 13:06:09;;;;;;;12.00;4.00;;;;;;;;;;4959541;28;20052;-57
2021/12/21 13:11:54;;;;;;;6.35;3.03;;;;;;;;;;4963052;28;20068;-57
2021/12/21 13:14:22;;;;;;;5.55;2.85;;;;;;;;;;4945104;28;20038;-57
2021/12/21 13:16:49;;;;;;;7.53;3.75;;;;;;;;;;4965035;28;20037;-57
2021/12/21 13:19:18;;;;;;;6.57;3.30;;;;;;;;;;4966554;28;20064;-58
2021/12/21 13:21:51;;;;;;;11.73;3.60;;;;;;;;;;4979625;28;20466;-58
2021/12/21 13:24:20;;;;;;;6.78;3.58;;;;;;;;;;4964081;28;20086;-58
2021/12/21 13:26:51;;;;;;;12.93;4.00;;;;;;;;;;4949872;28;20034;-57
2021/12/21 13:29:23;;;;;;;9.55;4.07;;;;;;;;;;4962685;28;20030;-58
2021/12/21 13:31:50;;;;;;;15.43;4.35;;;;;;;;;;4964465;28;20039;-56
2021/12/21 13:34:19;;;;;;;10.00;3.88;;;;;;;;;;4964327;28;20062;-58
2021/12/21 13:37:01;;;;;;;11.15;4.43;;;;;;;;;;4941455;28;20093;-57
2021/12/21 13:39:40;;;;;;;8.68;3.72;;;;;;;;;;4958247;28;20168;-57
2021/12/21 13:42:10;;;;;;;7.82;4.43;;;;;;;;;;4965853;28;20234;-57
2021/12/21 13:44:59;;;;;;;7.88;4.25;;;;;;;;;;4963996;28;20084;-57
2021/12/21 13:47:45;;;;;;;10.10;4.57;;;;;;;;;;4962287;28;20042;-56
2021/12/21 13:50:18;;;;;;;9.45;4.15;;;;;;;;;;4964917;28;22054;-57
2021/12/21 13:52:48;;;;;;;9.68;4.55;;;;;;;;;;4964160;28;20049;-56
2021/12/21 13:55:36;;;;;;;12.80;4.88;;;;;;;;;;4959333;28;20806;-56
2021/12/21 13:58:06;;;;;;;13.30;4.93;;;;;;;;;;4963146;28;20048;-57
2021/12/21 14:00:34;;;;;;;10.30;4.50;;;;;;;;;;4963446;28;20117;-57
2021/12/21 14:03:19;;;;;;;12.32;5.57;;;;;;;;;;4963449;28;20045;-57
2021/12/21 14:05:57;;;;;;;13.35;4.55;;;;;;;;;;4956096;28;20051;-57
2021/12/21 14:12:13;;;;;;;12.55;4.70;;;;;;;;;;4961686;28;20076;-56
2021/12/21 14:14:41;;;;;;;7.82;4.65;;;;;;;;;;4963346;28;20026;-55
2021/12/21 14:17:10;;;;;;;11.20;4.75;;;;;;;;;;4957041;28;20042;-56
2021/12/21 14:19:36;;;;;;;9.73;4.63;;;;;;;;;;4958301;28;20478;-56
2021/12/21 14:22:03;;;;;;;11.90;5.35;;;;;;;;;;4974673;28;20157;-56
2021/12/21 14:24:31;;;;;;;9.65;4.70;;;;;;;;;;4941862;28;20038;-57
2021/12/21 14:26:58;;;;;;;12.63;4.70;;;;;;;;;;4957077;28;20037;-56
2021/12/21 14:29:25;;;;;;;8.70;4.53;;;;;;;;;;4963537;28;20109;-56
2021/12/21 14:32:14;;;;;;;13.20;4.85;;;;;;;;;;4940823;28;20042;-56
2021/12/21 14:34:40;;;;;;;8.77;4.00;;;;;;;;;;4963256;28;20034;-56
2021/12/21 14:37:10;;;;;;;10.60;4.78;;;;;;;;;;4963207;28;20038;-56
2021/12/21 14:39:42;;;;;;;7.20;4.10;;;;;;;;;;4961593;28;21939;-56
2021/12/21 14:42:20;;;;;;;10.45;4.95;;;;;;;;;;4960833;28;20091;-56
2021/12/21 14:44:57;;;;;;;8.30;4.47;;;;;;;;;;4964880;28;20637;-55
2021/12/21 14:47:30;;;;;;;16.90;5.00;;;;;;;;;;4959612;28;20030;-56
2021/12/21 14:50:04;;;;;;;9.35;4.57;;;;;;;;;;4961950;28;20046;-56
2021/12/21 14:52:39;;;;;;;9.25;4.50;;;;;;;;;;4964437;28;20022;-56
2021/12/21 14:55:05;;;;;;;8.60;4.07;;;;;;;;;;4965598;28;20065;-55
2021/12/21 14:57:37;;;;;;;10.50;4.57;;;;;;;;;;4963936;28;20689;-56
2021/12/21 15:00:32;;;;;;;15.80;5.13;;;;;;;;;;4964097;28;20072;-55
2021/12/21 15:02:59;;;;;;;8.50;3.75;;;;;;;;;;4964129;28;20065;-56
2021/12/21 15:05:28;;;;;;;11.75;4.65;;;;;;;;;;4963378;28;20057;-56
2021/12/21 15:07:56;;;;;;;7.18;4.50;;;;;;;;;;4970186;28;20062;-56
2021/12/21 15:10:27;;;;;;;9.55;4.32;;;;;;;;;;4942213;28;20053;-57
2021/12/21 15:12:54;;;;;;;11.75;4.43;;;;;;;;;;4962512;28;21089;-56
2021/12/21 15:15:21;;;;;;;8.80;4.32;;;;;;;;;;4961621;28;20216;-56
2021/12/21 15:17:52;;;;;;;11.65;4.40;;;;;;;;;;4963650;28;20042;-56
2021/12/21 15:20:24;;;;;;;8.23;4.38;;;;;;;;;;4947144;28;20120;-56
2021/12/21 15:22:55;;;;;;;6.45;3.80;;;;;;;;;;4958741;28;20049;-56
2021/12/21 15:25:21;;;;;;;13.88;5.07;;;;;;;;;;4959620;28;20035;-56
2021/12/21 15:27:47;;;;;;;7.63;4.07;;;;;;;;;;4962089;28;20037;-55
2021/12/21 15:30:46;;;;;;;8.55;4.32;;;;;;;;;;4939570;28;20561;-56
2021/12/21 15:33:24;;;;;;;12.13;4.57;;;;;;;;;;4956710;28;20034;-56
2021/12/21 15:35:50;;;;;;;9.40;4.95;;;;;;;;;;4960551;28;20452;-56
2021/12/21 15:38:23;;;;;;;10.98;4.40;;;;;;;;;;4947055;28;20057;-56
2021/12/21 15:40:53;;;;;;;9.88;4.82;;;;;;;;;;4976750;28;20077;-56
2021/12/21 15:43:31;;;;;;;10.07;4.28;;;;;;;;;;4963894;28;20030;-57
2021/12/21 15:45:58;;;;;;;10.82;5.32;;;;;;;;;;4948622;28;20050;-57
2021/12/21 15:48:29;;;;;;;8.30;4.75;;;;;;;;;;4944435;28;20038;-58
2021/12/21 15:50:55;;;;;;;27.13;11.50;;;;;;;;;;4977690;28;20101;-57
2021/12/21 15:53:26;;;;;;;13.93;6.25;;;;;;;;;;4961578;28;20077;-58
2021/12/21 15:55:53;;;;;;;17.98;7.43;;;;;;;;;;4962916;28;20061;-58
2021/12/21 15:58:22;;;;;;;16.40;6.65;;;;;;;;;;4961979;28;20044;-58
2021/12/21 16:00:50;;;;;;;9.55;4.53;;;;;;;;;;4956646;28;20026;-58
2021/12/21 16:03:18;;;;;;;10.20;5.65;;;;;;;;;;4962784;28;20030;-58
2021/12/21 16:05:47;;;;;;;12.38;5.10;;;;;;;;;;4962520;28;20042;-56
2021/12/21 16:08:17;;;;;;;10.68;5.22;;;;;;;;;;4975349;28;20683;-57
2021/12/21 16:10:42;;;;;;;14.57;6.40;;;;;;;;;;4977184;28;20499;-58
2021/12/21 16:13:08;;;;;;;9.75;5.55;;;;;;;;;;4947069;28;20031;-58
2021/12/21 16:15:36;;;;;;;13.63;4.97;;;;;;;;;;4964338;28;20034;-57